sensor_id;sensor_type;location;lat;lon;timestamp;pressure;altitude;pressure_sealevel;temperature;humidity
57948;BME280;43754;56.992;24.292;2022-11-14T00:01:11;103139.19;;;1.52;100.00
57948;BME280;43754;56.992;24.292;2022-11-14T00:04:01;103140.19;;;1.50;100.00
57948;BME280;43754;56.992;24.292;2022-11-14T00:06:52;103141.97;;;1.49;100.00
57948;BME280;43754;56.992;24.292;2022-11-14T00:09:43;103140.25;;;1.48;100.00
57948;BME280;43754;56.992;24.292;2022-11-14T00:12:33;103140.25;;;1.48;100.00
57948;BME280;43754;56.992;24.292;2022-11-14T00:15:23;103141.13;;;1.49;100.00
57948;BME280;43754;56.992;24.292;2022-11-14T00:18:15;103143.75;;;1.49;100.00
57948;BME280;43754;56.992;24.292;2022-11-14T00:21:05;103147.41;;;1.46;100.00
57948;BME280;43754;56.992;24.292;2022-11-14T00:23:55;103137.75;;;1.45;100.00
57948;BME280;43754;56.992;24.292;2022-11-14T00:26:45;103137.56;;;1.50;100.00
57948;BME280;43754;56.992;24.292;2022-11-14T00:29:36;103148.03;;;1.51;100.00
57948;BME280;43754;56.992;24.292;2022-11-14T00:32:26;103150.69;;;1.51;100.00
57948;BME280;43754;56.992;24.292;2022-11-14T00:35:18;103148.03;;;1.51;100.00
57948;BME280;43754;56.992;24.292;2022-11-14T00:38:08;103145.66;;;1.45;100.00
57948;BME280;43754;56.992;24.292;2022-11-14T00:40:58;103145.66;;;1.45;100.00
57948;BME280;43754;56.992;24.292;2022-11-14T00:43:49;103135.78;;;1.50;100.00
57948;BME280;43754;56.992;24.292;2022-11-14T00:46:39;103131.28;;;1.52;100.00
57948;BME280;43754;56.992;24.292;2022-11-14T00:49:29;103124.25;;;1.51;100.00
57948;BME280;43754;56.992;24.292;2022-11-14T00:52:20;103124.25;;;1.51;100.00
57948;BME280;43754;56.992;24.292;2022-11-14T00:55:10;103118.78;;;1.56;100.00
57948;BME280;43754;56.992;24.292;2022-11-14T00:58:01;103116.81;;;1.61;100.00
57948;BME280;43754;56.992;24.292;2022-11-14T01:00:51;103111.38;;;1.64;100.00
57948;BME280;43754;56.992;24.292;2022-11-14T01:03:42;103107.97;;;1.62;100.00
57948;BME280;43754;56.992;24.292;2022-11-14T01:06:32;103113.31;;;1.60;100.00
57948;BME280;43754;56.992;24.292;2022-11-14T01:09:24;103108.03;;;1.60;100.00
57948;BME280;43754;56.992;24.292;2022-11-14T01:12:14;103112.34;;;1.63;100.00
57948;BME280;43754;56.992;24.292;2022-11-14T01:15:05;103118.53;;;1.62;100.00
57948;BME280;43754;56.992;24.292;2022-11-14T01:17:55;103109.69;;;1.63;100.00
57948;BME280;43754;56.992;24.292;2022-11-14T01:20:46;103110.41;;;1.66;100.00
57948;BME280;43754;56.992;24.292;2022-11-14T01:23:37;103107.81;;;1.65;100.00
57948;BME280;43754;56.992;24.292;2022-11-14T01:26:29;103118.34;;;1.66;100.00
57948;BME280;43754;56.992;24.292;2022-11-14T01:29:19;103106.81;;;1.67;100.00
57948;BME280;43754;56.992;24.292;2022-11-14T01:32:09;103103.34;;;1.67;100.00
57948;BME280;43754;56.992;24.292;2022-11-14T01:34:59;103110.28;;;1.69;100.00
57948;BME280;43754;56.992;24.292;2022-11-14T01:37:49;103120.72;;;1.72;100.00
57948;BME280;43754;56.992;24.292;2022-11-14T01:40:40;103124.16;;;1.74;100.00
57948;BME280;43754;56.992;24.292;2022-11-14T01:43:32;103113.06;;;1.66;100.00
57948;BME280;43754;56.992;24.292;2022-11-14T01:46:23;103119.13;;;1.68;100.00
57948;BME280;43754;56.992;24.292;2022-11-14T01:49:16;103110.94;;;1.74;100.00
57948;BME280;43754;56.992;24.292;2022-11-14T01:52:09;103114.19;;;1.81;100.00
57948;BME280;43754;56.992;24.292;2022-11-14T01:55:00;103108.75;;;1.84;100.00
57948;BME280;43754;56.992;24.292;2022-11-14T01:57:52;103113.25;;;1.82;100.00
57948;BME280;43754;56.992;24.292;2022-11-14T02:00:44;103108.66;;;1.87;100.00
57948;BME280;43754;56.992;24.292;2022-11-14T02:03:35;103109.28;;;1.92;100.00
57948;BME280;43754;56.992;24.292;2022-11-14T02:06:28;103107.44;;;1.94;100.00
57948;BME280;43754;56.992;24.292;2022-11-14T02:09:18;103110.91;;;1.96;100.00
57948;BME280;43754;56.992;24.292;2022-11-14T02:12:09;103104.78;;;1.94;100.00
57948;BME280;43754;56.992;24.292;2022-11-14T02:15:01;103098.50;;;1.97;100.00
57948;BME280;43754;56.992;24.292;2022-11-14T02:17:53;103098.66;;;1.94;100.00
57948;BME280;43754;56.992;24.292;2022-11-14T02:20:45;103105.59;;;1.96;100.00
57948;BME280;43754;56.992;24.292;2022-11-14T02:23:35;103101.97;;;1.99;100.00
57948;BME280;43754;56.992;24.292;2022-11-14T02:26:25;103101.97;;;1.99;100.00
57948;BME280;43754;56.992;24.292;2022-11-14T02:29:16;103095.59;;;2.03;100.00
57948;BME280;43754;56.992;24.292;2022-11-14T02:32:06;103097.44;;;2.01;100.00
57948;BME280;43754;56.992;24.292;2022-11-14T02:34:59;103093.34;;;1.94;100.00
57948;BME280;43754;56.992;24.292;2022-11-14T02:37:51;103102.97;;;1.96;100.00
57948;BME280;43754;56.992;24.292;2022-11-14T02:40:41;103099.16;;;2.02;100.00
57948;BME280;43754;56.992;24.292;2022-11-14T02:43:31;103092.97;;;2.03;100.00
57948;BME280;43754;56.992;24.292;2022-11-14T02:46:21;103095.41;;;2.07;100.00
57948;BME280;43754;56.992;24.292;2022-11-14T02:49:12;103084.69;;;2.10;100.00
57948;BME280;43754;56.992;24.292;2022-11-14T02:52:02;103089.97;;;2.10;100.00
57948;BME280;43754;56.992;24.292;2022-11-14T02:54:53;103080.41;;;2.08;100.00
57948;BME280;43754;56.992;24.292;2022-11-14T02:57:44;103086.75;;;2.04;100.00
57948;BME280;43754;56.992;24.292;2022-11-14T03:00:34;103084.81;;;2.07;100.00
57948;BME280;43754;56.992;24.292;2022-11-14T03:03:29;103083.09;;;2.06;100.00
57948;BME280;43754;56.992;24.292;2022-11-14T03:06:20;103071.41;;;2.12;100.00
57948;BME280;43754;56.992;24.292;2022-11-14T03:09:10;103076.69;;;2.12;100.00
57948;BME280;43754;56.992;24.292;2022-11-14T03:12:02;103079.38;;;2.10;100.00
57948;BME280;43754;56.992;24.292;2022-11-14T03:14:52;103074.38;;;2.04;100.00
57948;BME280;43754;56.992;24.292;2022-11-14T03:17:43;103069.94;;;2.05;100.00
57948;BME280;43754;56.992;24.292;2022-11-14T03:20:33;103075.31;;;2.03;100.00
57948;BME280;43754;56.992;24.292;2022-11-14T03:23:23;103078.00;;;2.02;100.00
57948;BME280;43754;56.992;24.292;2022-11-14T03:26:14;103078.22;;;1.97;100.00
57948;BME280;43754;56.992;24.292;2022-11-14T03:29:06;103067.81;;;1.93;100.00
57948;BME280;43754;56.992;24.292;2022-11-14T03:31:56;103080.13;;;1.94;100.00
57948;BME280;43754;56.992;24.292;2022-11-14T03:34:47;103075.75;;;1.93;100.00
57948;BME280;43754;56.992;24.292;2022-11-14T03:37:37;103082.25;;;1.85;100.00
57948;BME280;43754;56.992;24.292;2022-11-14T03:40:27;103075.38;;;1.81;100.00
57948;BME280;43754;56.992;24.292;2022-11-14T03:43:18;103079.09;;;1.77;100.00
57948;BME280;43754;56.992;24.292;2022-11-14T03:46:10;103075.84;;;1.71;100.00
57948;BME280;43754;56.992;24.292;2022-11-14T03:49:01;103074.00;;;1.73;100.00
57948;BME280;43754;56.992;24.292;2022-11-14T03:51:51;103073.28;;;1.69;100.00
57948;BME280;43754;56.992;24.292;2022-11-14T03:54:42;103067.31;;;1.64;100.00
57948;BME280;43754;56.992;24.292;2022-11-14T03:57:32;103063.69;;;1.67;100.00
57948;BME280;43754;56.992;24.292;2022-11-14T04:00:22;103058.59;;;1.62;100.00
57948;BME280;43754;56.992;24.292;2022-11-14T04:03:14;103063.38;;;1.54;100.00
57948;BME280;43754;56.992;24.292;2022-11-14T04:06:04;103054.09;;;1.44;100.00
57948;BME280;43754;56.992;24.292;2022-11-14T04:08:54;103054.97;;;1.45;100.00
57948;BME280;43754;56.992;24.292;2022-11-14T04:11:45;103055.28;;;1.37;100.00
57948;BME280;43754;56.992;24.292;2022-11-14T04:14:36;103050.31;;;1.29;100.00
57948;BME280;43754;56.992;24.292;2022-11-14T04:17:26;103049.69;;;1.23;100.00
57948;BME280;43754;56.992;24.292;2022-11-14T04:20:18;103045.72;;;1.13;100.00
57948;BME280;43754;56.992;24.292;2022-11-14T04:23:09;103046.75;;;1.09;100.00
57948;BME280;43754;56.992;24.292;2022-11-14T04:25:59;103043.88;;;1.15;100.00
57948;BME280;43754;56.992;24.292;2022-11-14T04:28:50;103045.53;;;1.17;100.00
57948;BME280;43754;56.992;24.292;2022-11-14T04:31:40;103038.47;;;1.18;100.00
57948;BME280;43754;56.992;24.292;2022-11-14T04:34:30;103030.47;;;1.19;100.00
57948;BME280;43754;56.992;24.292;2022-11-14T04:37:22;103029.56;;;1.20;100.00
57948;BME280;43754;56.992;24.292;2022-11-14T04:40:13;103029.47;;;1.22;100.00
57948;BME280;43754;56.992;24.292;2022-11-14T04:43:03;103033.84;;;1.23;100.00
57948;BME280;43754;56.992;24.292;2022-11-14T04:45:53;103025.69;;;1.29;100.00
57948;BME280;43754;56.992;24.292;2022-11-14T04:48:44;103026.56;;;1.29;100.00
57948;BME280;43754;56.992;24.292;2022-11-14T04:51:34;103029.84;;;1.34;100.00
57948;BME280;43754;56.992;24.292;2022-11-14T04:54:25;103020.94;;;1.37;100.00
57948;BME280;43754;56.992;24.292;2022-11-14T04:57:16;103027.09;;;1.37;100.00
57948;BME280;43754;56.992;24.292;2022-11-14T05:00:07;103027.31;;;1.31;100.00
57948;BME280;43754;56.992;24.292;2022-11-14T05:02:58;103021.56;;;1.22;100.00
57948;BME280;43754;56.992;24.292;2022-11-14T05:05:49;103024.34;;;1.19;100.00
57948;BME280;43754;56.992;24.292;2022-11-14T05:08:39;103030.47;;;1.19;100.00
57948;BME280;43754;56.992;24.292;2022-11-14T05:11:31;103030.44;;;1.21;100.00
57948;BME280;43754;56.992;24.292;2022-11-14T05:14:21;103027.84;;;1.19;100.00
57948;BME280;43754;56.992;24.292;2022-11-14T05:17:12;103025.19;;;1.19;100.00
57948;BME280;43754;56.992;24.292;2022-11-14T05:20:02;103020.59;;;1.24;100.00
57948;BME280;43754;56.992;24.292;2022-11-14T05:22:52;103028.44;;;1.26;100.00
57948;BME280;43754;56.992;24.292;2022-11-14T05:25:43;103021.31;;;1.28;100.00
57948;BME280;43754;56.992;24.292;2022-11-14T05:28:35;103030.97;;;1.29;100.00
57948;BME280;43754;56.992;24.292;2022-11-14T05:31:25;103024.63;;;1.33;100.00
57948;BME280;43754;56.992;24.292;2022-11-14T05:34:16;103021.19;;;1.31;100.00
57948;BME280;43754;56.992;24.292;2022-11-14T05:37:06;103023.69;;;1.34;100.00
57948;BME280;43754;56.992;24.292;2022-11-14T05:39:57;103023.56;;;1.37;100.00
57948;BME280;43754;56.992;24.292;2022-11-14T05:42:47;103033.97;;;1.42;100.00
57948;BME280;43754;56.992;24.292;2022-11-14T05:45:39;103032.22;;;1.41;100.00
57948;BME280;43754;56.992;24.292;2022-11-14T05:48:30;103030.50;;;1.39;100.00
57948;BME280;43754;56.992;24.292;2022-11-14T05:51:21;103026.28;;;1.35;100.00
57948;BME280;43754;56.992;24.292;2022-11-14T05:54:12;103027.91;;;1.38;100.00
57948;BME280;43754;56.992;24.292;2022-11-14T05:57:02;103032.56;;;1.33;100.00
57948;BME280;43754;56.992;24.292;2022-11-14T05:59:52;103037.03;;;1.31;100.00
57948;BME280;43754;56.992;24.292;2022-11-14T06:02:44;103041.34;;;1.33;100.00
57948;BME280;43754;56.992;24.292;2022-11-14T06:05:35;103030.66;;;1.36;100.00
57948;BME280;43754;56.992;24.292;2022-11-14T06:08:26;103036.91;;;1.34;100.00
57948;BME280;43754;56.992;24.292;2022-11-14T06:11:17;103032.56;;;1.33;100.00
57948;BME280;43754;56.992;24.292;2022-11-14T06:14:08;103038.94;;;1.27;100.00
57948;BME280;43754;56.992;24.292;2022-11-14T06:17:00;103037.94;;;1.30;100.00
57948;BME280;43754;56.992;24.292;2022-11-14T06:19:51;103046.63;;;1.33;100.00
57948;BME280;43754;56.992;24.292;2022-11-14T06:22:42;103039.81;;;1.28;100.00
57948;BME280;43754;56.992;24.292;2022-11-14T06:25:32;103044.78;;;1.35;100.00
57948;BME280;43754;56.992;24.292;2022-11-14T06:28:23;103041.13;;;1.38;100.00
57948;BME280;43754;56.992;24.292;2022-11-14T06:31:13;103048.59;;;1.28;100.00
57948;BME280;43754;56.992;24.292;2022-11-14T06:34:04;103060.56;;;1.37;100.00
57948;BME280;43754;56.992;24.292;2022-11-14T06:36:56;103052.50;;;1.40;100.00
57948;BME280;43754;56.992;24.292;2022-11-14T06:39:47;103048.56;;;1.50;100.00
57948;BME280;43754;56.992;24.292;2022-11-14T06:42:37;103043.88;;;1.57;100.00
57948;BME280;43754;56.992;24.292;2022-11-14T06:45:27;103049.19;;;1.55;100.00
57948;BME280;43754;56.992;24.292;2022-11-14T06:48:18;103052.47;;;1.62;100.00
57948;BME280;43754;56.992;24.292;2022-11-14T06:51:08;103052.06;;;1.71;100.00
57948;BME280;43754;56.992;24.292;2022-11-14T06:54:00;103051.94;;;1.74;100.00
57948;BME280;43754;56.992;24.292;2022-11-14T06:56:50;103056.34;;;1.73;100.00
57948;BME280;43754;56.992;24.292;2022-11-14T06:59:41;103043.19;;;1.72;100.00
57948;BME280;43754;56.992;24.292;2022-11-14T07:02:31;103048.28;;;1.76;100.00
57948;BME280;43754;56.992;24.292;2022-11-14T07:05:22;103042.94;;;1.78;100.00
57948;BME280;43754;56.992;24.292;2022-11-14T07:08:12;103046.34;;;1.80;100.00
57948;BME280;43754;56.992;24.292;2022-11-14T07:11:10;103046.97;;;1.87;100.00
57948;BME280;43754;56.992;24.292;2022-11-14T07:14:01;103041.66;;;1.87;100.00
57948;BME280;43754;56.992;24.292;2022-11-14T07:16:52;103042.34;;;1.92;100.00
57948;BME280;43754;56.992;24.292;2022-11-14T07:19:42;103040.75;;;1.88;100.00
57948;BME280;43754;56.992;24.292;2022-11-14T07:22:33;103028.16;;;1.93;100.00
57948;BME280;43754;56.992;24.292;2022-11-14T07:25:23;103038.81;;;1.91;100.00
57948;BME280;43754;56.992;24.292;2022-11-14T07:28:15;103044.31;;;1.87;100.00
57948;BME280;43754;56.992;24.292;2022-11-14T07:31:07;103041.81;;;1.83;100.00
57948;BME280;43754;56.992;24.292;2022-11-14T07:33:57;103038.09;;;1.88;100.00
57948;BME280;43754;56.992;24.292;2022-11-14T07:36:48;103037.63;;;1.98;100.00
57948;BME280;43754;56.992;24.292;2022-11-14T07:39:39;103039.25;;;2.01;100.00
57948;BME280;43754;56.992;24.292;2022-11-14T07:42:29;103027.59;;;1.86;100.00
57948;BME280;43754;56.992;24.292;2022-11-14T07:45:21;103036.19;;;1.91;100.00
57948;BME280;43754;56.992;24.292;2022-11-14T07:48:11;103029.88;;;1.94;100.00
57948;BME280;43754;56.992;24.292;2022-11-14T07:51:02;103028.56;;;2.04;100.00
57948;BME280;43754;56.992;24.292;2022-11-14T07:53:54;103035.06;;;2.15;100.00
57948;BME280;43754;56.992;24.292;2022-11-14T07:56:44;103032.94;;;2.23;100.00
57948;BME280;43754;56.992;24.292;2022-11-14T07:59:34;103030.78;;;2.31;100.00
57948;BME280;43754;56.992;24.292;2022-11-14T08:02:26;103018.78;;;2.43;100.00
57948;BME280;43754;56.992;24.292;2022-11-14T08:05:17;103013.84;;;2.36;100.00
57948;BME280;43754;56.992;24.292;2022-11-14T08:08:07;103014.75;;;2.35;100.00
57948;BME280;43754;56.992;24.292;2022-11-14T08:10:58;103016.34;;;2.39;100.00
57948;BME280;43754;56.992;24.292;2022-11-14T08:13:49;103002.78;;;2.46;100.00
57948;BME280;43754;56.992;24.292;2022-11-14T08:16:39;102994.69;;;2.49;100.00
57948;BME280;43754;56.992;24.292;2022-11-14T08:19:31;102997.31;;;2.49;100.00
57948;BME280;43754;56.992;24.292;2022-11-14T08:22:21;103002.97;;;2.42;100.00
57948;BME280;43754;56.992;24.292;2022-11-14T08:25:11;102996.81;;;2.41;100.00
57948;BME280;43754;56.992;24.292;2022-11-14T08:28:01;102989.66;;;2.43;100.00
57948;BME280;43754;56.992;24.292;2022-11-14T08:30:52;102986.66;;;2.32;100.00
57948;BME280;43754;56.992;24.292;2022-11-14T08:33:42;102993.88;;;2.47;100.00
57948;BME280;43754;56.992;24.292;2022-11-14T08:36:34;102983.34;;;2.64;100.00
57948;BME280;43754;56.992;24.292;2022-11-14T08:39:24;102975.06;;;2.53;100.00
57948;BME280;43754;56.992;24.292;2022-11-14T08:42:15;102974.91;;;2.56;100.00
57948;BME280;43754;56.992;24.292;2022-11-14T08:45:05;102983.50;;;2.61;100.00
57948;BME280;43754;56.992;24.292;2022-11-14T08:47:56;102980.91;;;2.60;100.00
57948;BME280;43754;56.992;24.292;2022-11-14T08:50:46;102989.13;;;2.72;100.00
57948;BME280;43754;56.992;24.292;2022-11-14T08:53:38;102980.25;;;2.73;100.00
57948;BME280;43754;56.992;24.292;2022-11-14T08:56:28;102976.75;;;2.73;100.00
57948;BME280;43754;56.992;24.292;2022-11-14T08:59:19;102969.88;;;2.69;100.00
57948;BME280;43754;56.992;24.292;2022-11-14T09:02:09;102967.06;;;2.72;100.00
57948;BME280;43754;56.992;24.292;2022-11-14T09:05:00;102963.50;;;2.73;100.00
57948;BME280;43754;56.992;24.292;2022-11-14T09:07:50;102962.63;;;2.72;100.00
57948;BME280;43754;56.992;24.292;2022-11-14T09:10:42;102956.72;;;2.85;100.00
57948;BME280;43754;56.992;24.292;2022-11-14T09:13:32;102958.16;;;2.92;100.00
57948;BME280;43754;56.992;24.292;2022-11-14T09:16:22;102956.06;;;2.98;100.00
57948;BME280;43754;56.992;24.292;2022-11-14T09:19:13;102956.06;;;2.98;100.00
57948;BME280;43754;56.992;24.292;2022-11-14T09:22:03;102958.63;;;2.83;100.00
57948;BME280;43754;56.992;24.292;2022-11-14T09:24:53;102955.97;;;2.83;100.00
57948;BME280;43754;56.992;24.292;2022-11-14T09:27:45;102957.69;;;2.84;100.00
57948;BME280;43754;56.992;24.292;2022-11-14T09:30:36;102963.06;;;2.82;100.00
57948;BME280;43754;56.992;24.292;2022-11-14T09:33:26;102965.47;;;2.87;100.00
57948;BME280;43754;56.992;24.292;2022-11-14T09:36:16;102962.66;;;2.90;100.00
57948;BME280;43754;56.992;24.292;2022-11-14T09:39:07;102958.38;;;2.87;100.00
57948;BME280;43754;56.992;24.292;2022-11-14T09:42:01;102945.78;;;2.92;100.00
57948;BME280;43754;56.992;24.292;2022-11-14T09:45:01;102950.13;;;2.93;100.00
57948;BME280;43754;56.992;24.292;2022-11-14T09:47:53;102949.03;;;2.97;100.00
57948;BME280;43754;56.992;24.292;2022-11-14T09:50:45;102937.66;;;2.95;100.00
57948;BME280;43754;56.992;24.292;2022-11-14T09:53:39;102931.50;;;2.95;100.00
57948;BME280;43754;56.992;24.292;2022-11-14T09:56:32;102933.84;;;3.01;100.00
57948;BME280;43754;56.992;24.292;2022-11-14T09:59:23;102924.97;;;3.02;100.00
57948;BME280;43754;56.992;24.292;2022-11-14T10:02:33;102927.22;;;3.09;100.00
57948;BME280;43754;56.992;24.292;2022-11-14T10:05:31;102937.03;;;3.24;100.00
57948;BME280;43754;56.992;24.292;2022-11-14T10:08:28;102933.38;;;3.27;100.00
57948;BME280;43754;56.992;24.292;2022-11-14T10:11:22;102931.41;;;3.31;100.00
57948;BME280;43754;56.992;24.292;2022-11-14T10:14:22;102930.31;;;3.35;100.00
57948;BME280;43754;56.992;24.292;2022-11-14T10:17:20;102931.31;;;3.49;100.00
57948;BME280;43754;56.992;24.292;2022-11-14T10:20:15;102930.06;;;3.56;100.00
57948;BME280;43754;56.992;24.292;2022-11-14T10:23:13;102916.63;;;3.59;100.00
57948;BME280;43754;56.992;24.292;2022-11-14T10:26:08;102918.03;;;3.66;100.00
57948;BME280;43754;56.992;24.292;2022-11-14T10:29:08;102917.84;;;3.69;100.00
57948;BME280;43754;56.992;24.292;2022-11-14T10:32:09;102909.28;;;3.64;100.00
57948;BME280;43754;56.992;24.292;2022-11-14T10:35:06;102912.03;;;3.63;100.00
57948;BME280;43754;56.992;24.292;2022-11-14T10:38:03;102904.16;;;3.61;100.00
57948;BME280;43754;56.992;24.292;2022-11-14T10:40:57;102901.75;;;3.57;100.00
57948;BME280;43754;56.992;24.292;2022-11-14T10:43:48;102907.28;;;3.52;100.00
57948;BME280;43754;56.992;24.292;2022-11-14T10:46:40;102891.72;;;3.46;100.00
57948;BME280;43754;56.992;24.292;2022-11-14T10:49:34;102885.63;;;3.44;100.00
57948;BME280;43754;56.992;24.292;2022-11-14T10:52:35;102881.63;;;3.53;100.00
57948;BME280;43754;56.992;24.292;2022-11-14T10:55:28;102878.50;;;3.62;100.00
57948;BME280;43754;56.992;24.292;2022-11-14T10:58:39;102879.84;;;3.53;100.00
57948;BME280;43754;56.992;24.292;2022-11-14T11:01:37;102869.13;;;3.55;100.00
57948;BME280;43754;56.992;24.292;2022-11-14T11:04:29;102872.09;;;3.66;100.00
57948;BME280;43754;56.992;24.292;2022-11-14T11:07:21;102881.16;;;3.78;100.00
57948;BME280;43754;56.992;24.292;2022-11-14T11:10:32;102863.53;;;3.77;100.00
57948;BME280;43754;56.992;24.292;2022-11-14T11:13:47;102861.66;;;3.79;100.00
57948;BME280;43754;56.992;24.292;2022-11-14T11:16:39;102867.72;;;3.81;100.00
57948;BME280;43754;56.992;24.292;2022-11-14T11:19:29;102861.56;;;3.80;100.00
57948;BME280;43754;56.992;24.292;2022-11-14T11:22:28;102852.66;;;3.81;100.00
57948;BME280;43754;56.992;24.292;2022-11-14T11:25:23;102848.16;;;3.83;100.00
57948;BME280;43754;56.992;24.292;2022-11-14T11:28:16;102846.59;;;3.79;100.00
57948;BME280;43754;56.992;24.292;2022-11-14T11:31:06;102831.63;;;3.78;100.00
57948;BME280;43754;56.992;24.292;2022-11-14T11:34:00;102839.16;;;3.70;100.00
57948;BME280;43754;56.992;24.292;2022-11-14T11:36:53;102832.56;;;3.77;100.00
57948;BME280;43754;56.992;24.292;2022-11-14T11:39:45;102827.53;;;3.88;100.00
57948;BME280;43754;56.992;24.292;2022-11-14T11:42:39;102822.72;;;3.95;100.00
57948;BME280;43754;56.992;24.292;2022-11-14T11:45:53;102816.75;;;3.91;100.00
57948;BME280;43754;56.992;24.292;2022-11-14T11:48:45;102809.22;;;3.84;100.00
57948;BME280;43754;56.992;24.292;2022-11-14T11:51:38;102810.66;;;3.89;100.00
57948;BME280;43754;56.992;24.292;2022-11-14T11:54:29;102815.81;;;3.92;100.00
57948;BME280;43754;56.992;24.292;2022-11-14T11:57:27;102812.56;;;3.87;100.00
57948;BME280;43754;56.992;24.292;2022-11-14T12:00:18;102809.22;;;3.84;100.00
57948;BME280;43754;56.992;24.292;2022-11-14T12:03:13;102800.22;;;3.86;100.00
57948;BME280;43754;56.992;24.292;2022-11-14T12:06:11;102800.16;;;3.88;100.00
57948;BME280;43754;56.992;24.292;2022-11-14T12:09:06;102797.31;;;3.75;100.00
57948;BME280;43754;56.992;24.292;2022-11-14T12:12:02;102798.19;;;3.76;100.00
57948;BME280;43754;56.992;24.292;2022-11-14T12:14:54;102794.50;;;3.78;100.00
57948;BME280;43754;56.992;24.292;2022-11-14T12:18:01;102788.94;;;3.83;100.00
57948;BME280;43754;56.992;24.292;2022-11-14T12:21:03;102790.81;;;3.81;100.00
57948;BME280;43754;56.992;24.292;2022-11-14T12:24:08;102785.50;;;3.81;100.00
57948;BME280;43754;56.992;24.292;2022-11-14T12:27:11;102782.41;;;3.72;100.00
57948;BME280;43754;56.992;24.292;2022-11-14T12:30:09;102784.13;;;3.74;100.00
57948;BME280;43754;56.992;24.292;2022-11-14T12:33:03;102777.91;;;3.75;100.00
57948;BME280;43754;56.992;24.292;2022-11-14T12:35:57;102772.22;;;3.81;100.00
57948;BME280;43754;56.992;24.292;2022-11-14T12:38:50;102766.78;;;3.84;100.00
57948;BME280;43754;56.992;24.292;2022-11-14T12:41:41;102772.50;;;3.92;100.00
57948;BME280;43754;56.992;24.292;2022-11-14T12:44:32;102759.75;;;3.83;100.00
57948;BME280;43754;56.992;24.292;2022-11-14T12:47:25;102761.63;;;3.81;100.00
57948;BME280;43754;56.992;24.292;2022-11-14T12:50:28;102767.09;;;3.78;100.00
57948;BME280;43754;56.992;24.292;2022-11-14T12:53:39;102757.88;;;3.69;100.00
57948;BME280;43754;56.992;24.292;2022-11-14T12:59:54;102756.69;;;3.75;100.00
57948;BME280;43754;56.992;24.292;2022-11-14T13:03:02;102758.22;;;3.79;100.00
57948;BME280;43754;56.992;24.292;2022-11-14T13:05:59;102762.84;;;3.75;100.00
57948;BME280;43754;56.992;24.292;2022-11-14T13:08:58;102759.41;;;3.73;100.00
57948;BME280;43754;56.992;24.292;2022-11-14T13:11:53;102759.66;;;3.68;100.00
57948;BME280;43754;56.992;24.292;2022-11-14T13:15:16;102763.19;;;3.69;100.00
57948;BME280;43754;56.992;24.292;2022-11-14T13:18:26;102761.47;;;3.68;100.00
57948;BME280;43754;56.992;24.292;2022-11-14T13:21:35;102759.25;;;3.60;100.00
57948;BME280;43754;56.992;24.292;2022-11-14T13:31:19;102754.25;;;3.39;100.00
57948;BME280;43754;56.992;24.292;2022-11-14T13:37:20;102753.09;;;3.44;100.00
57948;BME280;43754;56.992;24.292;2022-11-14T13:40:15;102745.13;;;3.44;100.00
57948;BME280;43754;56.992;24.292;2022-11-14T13:43:10;102748.81;;;3.42;100.00
57948;BME280;43754;56.992;24.292;2022-11-14T13:46:06;102742.66;;;3.41;100.00
57948;BME280;43754;56.992;24.292;2022-11-14T13:49:06;102733.06;;;3.39;100.00
57948;BME280;43754;56.992;24.292;2022-11-14T13:52:01;102739.06;;;3.42;100.00
57948;BME280;43754;56.992;24.292;2022-11-14T13:54:52;102740.44;;;3.34;100.00
57948;BME280;43754;56.992;24.292;2022-11-14T13:57:44;102735.28;;;3.31;100.00
57948;BME280;43754;56.992;24.292;2022-11-14T14:00:49;102729.66;;;3.21;100.00
57948;BME280;43754;56.992;24.292;2022-11-14T14:03:47;102727.16;;;3.18;100.00
57948;BME280;43754;56.992;24.292;2022-11-14T14:06:49;102711.00;;;3.22;100.00
57948;BME280;43754;56.992;24.292;2022-11-14T14:09:46;102712.66;;;3.25;100.00
57948;BME280;43754;56.992;24.292;2022-11-14T14:12:43;102706.38;;;3.26;100.00
57948;BME280;43754;56.992;24.292;2022-11-14T14:15:39;102705.09;;;3.17;100.00
57948;BME280;43754;56.992;24.292;2022-11-14T14:18:39;102717.84;;;3.11;100.00
57948;BME280;43754;56.992;24.292;2022-11-14T14:21:35;102707.56;;;3.05;100.00
57948;BME280;43754;56.992;24.292;2022-11-14T14:24:34;102705.44;;;2.96;100.00
57948;BME280;43754;56.992;24.292;2022-11-14T14:27:31;102699.69;;;2.88;100.00
57948;BME280;43754;56.992;24.292;2022-11-14T14:30:24;102699.53;;;2.91;100.00
57948;BME280;43754;56.992;24.292;2022-11-14T14:33:14;102698.59;;;2.92;100.00
57948;BME280;43754;56.992;24.292;2022-11-14T14:36:14;102684.97;;;2.82;100.00
57948;BME280;43754;56.992;24.292;2022-11-14T14:39:06;102689.56;;;2.63;100.00
57948;BME280;43754;56.992;24.292;2022-11-14T14:41:59;102693.13;;;2.62;100.00
57948;BME280;43754;56.992;24.292;2022-11-14T14:44:50;102686.81;;;2.64;100.00
57948;BME280;43754;56.992;24.292;2022-11-14T14:47:42;102691.34;;;2.62;100.00
57948;BME280;43754;56.992;24.292;2022-11-14T14:50:34;102696.19;;;2.54;100.00
57948;BME280;43754;56.992;24.292;2022-11-14T14:53:26;102703.19;;;2.55;100.00
57948;BME280;43754;56.992;24.292;2022-11-14T14:56:17;102702.19;;;2.58;100.00
57948;BME280;43754;56.992;24.292;2022-11-14T14:59:16;102703.56;;;2.65;100.00
57948;BME280;43754;56.992;24.292;2022-11-14T15:02:10;102692.91;;;2.66;100.00
57948;BME280;43754;56.992;24.292;2022-11-14T15:05:02;102684.28;;;2.63;100.00